createdAt,value
2022-08-10T00:03:08.433Z,22.5
2022-08-10T00:07:22.058Z,22.5
2022-08-10T00:11:37.434Z,22.437
2022-08-10T00:16:29.186Z,22.437
2022-08-10T00:20:56.956Z,22.437
2022-08-10T00:24:50.207Z,22.437
2022-08-10T00:29:58.600Z,22.437
2022-08-10T00:33:50.673Z,22.437
2022-08-10T00:37:30.424Z,22.437
2022-08-10T00:41:26.554Z,22.5
2022-08-10T00:45:15.340Z,22.5
2022-08-10T00:49:37.815Z,22.562
2022-08-10T00:53:39.390Z,22.562
2022-08-10T00:59:00.048Z,22.562
2022-08-10T01:05:51.219Z,22.562
2022-08-10T01:09:31.840Z,22.562
2022-08-10T01:14:32.946Z,22.562
2022-08-10T01:18:39.452Z,22.562
2022-08-10T01:22:34.420Z,22.562
2022-08-10T01:27:17.397Z,22.562
2022-08-10T01:31:01.836Z,22.562
2022-08-10T01:34:56.507Z,22.562
2022-08-10T01:38:40.934Z,22.562
2022-08-10T01:42:35.786Z,22.562
2022-08-10T01:46:28.989Z,22.562
2022-08-10T01:50:19.382Z,22.562
2022-08-10T01:54:17.565Z,22.5
2022-08-10T01:57:59.392Z,22.5
2022-08-10T02:03:09.506Z,22.5
2022-08-10T02:07:01.616Z,22.5
2022-08-10T02:10:56.987Z,22.5
2022-08-10T02:15:10.979Z,22.437
2022-08-10T02:19:49.570Z,22.437
2022-08-10T02:24:42.699Z,22.437
2022-08-10T02:29:02.755Z,22.437
2022-08-10T02:33:26.444Z,22.437
2022-08-10T02:37:54.078Z,22.437
2022-08-10T02:47:09.502Z,22.437
2022-08-10T02:50:50.707Z,22.437
2022-08-10T02:56:04.669Z,22.437
2022-08-10T03:03:07.711Z,22.375
2022-08-10T03:07:43.302Z,22.375
2022-08-10T03:12:35.531Z,22.375
2022-08-10T03:16:38.750Z,22.375
2022-08-10T03:22:01.885Z,22.375
2022-08-10T03:26:20.656Z,22.375
2022-08-10T03:31:05.544Z,22.312
2022-08-10T03:35:11.196Z,22.375
2022-08-10T03:39:45.767Z,22.375
2022-08-10T03:43:45.439Z,22.375
2022-08-10T03:47:59.275Z,22.312
2022-08-10T03:52:30.910Z,22.312
2022-08-10T03:58:26.826Z,22.312
2022-08-10T04:04:56.172Z,22.312
2022-08-10T04:08:40.165Z,22.312
2022-08-10T04:12:50.831Z,22.312
2022-08-10T04:17:04.753Z,22.312
2022-08-10T04:21:35.162Z,22.312
2022-08-10T04:25:21.947Z,22.25
2022-08-10T04:29:01.860Z,22.25
2022-08-10T04:32:43.558Z,22.25
2022-08-10T04:36:23.908Z,22.25
2022-08-10T04:40:28.382Z,22.25
2022-08-10T04:44:24.848Z,22.25
2022-08-10T04:51:39.248Z,22.25
2022-08-10T04:55:58.831Z,22.25
2022-08-10T04:59:40.419Z,22.25
2022-08-10T05:05:18.540Z,22.25
2022-08-10T05:09:20.475Z,22.25
2022-08-10T05:13:19.708Z,22.312
2022-08-10T05:17:19.175Z,22.312
2022-08-10T05:22:41.678Z,22.312
2022-08-10T05:26:26.779Z,22.312
2022-08-10T05:30:50.525Z,22.312
2022-08-10T05:35:09.391Z,22.312
2022-08-10T05:40:08.021Z,22.312
2022-08-10T05:43:54.552Z,22.375
2022-08-10T05:49:37.736Z,22.437
2022-08-10T05:53:59.288Z,22.5
2022-08-10T05:58:21.145Z,22.562
2022-08-10T06:04:26.199Z,22.625
2022-08-10T06:08:11.066Z,22.75
2022-08-10T06:15:21.845Z,22.875
2022-08-10T06:19:43.332Z,23.0
2022-08-10T06:23:47.260Z,23.062
2022-08-10T06:29:30.113Z,23.187
2022-08-10T06:33:34.810Z,23.187
2022-08-10T06:37:22.666Z,23.25
2022-08-10T06:42:14.585Z,23.312
2022-08-10T06:46:06.839Z,23.312
2022-08-10T06:49:59.894Z,23.375
2022-08-10T06:54:37.647Z,23.375
2022-08-10T06:59:23.438Z,23.437
2022-08-10T07:03:34.328Z,23.437
2022-08-10T07:07:33.629Z,23.437
2022-08-10T07:11:32.821Z,23.5
2022-08-10T07:16:43.647Z,23.5
2022-08-10T07:20:41.763Z,23.5
2022-08-10T07:25:55.598Z,23.5
2022-08-10T07:30:37.030Z,23.5
2022-08-10T07:35:01.937Z,23.5
2022-08-10T07:38:42.330Z,23.5
2022-08-10T07:43:05.677Z,23.5
2022-08-10T07:46:48.331Z,23.5
2022-08-10T07:51:16.045Z,23.5
2022-08-10T07:54:57.622Z,23.437
2022-08-10T07:59:41.240Z,23.437
2022-08-10T08:03:13.467Z,23.437
2022-08-10T08:08:02.265Z,23.437
2022-08-10T08:12:03.883Z,23.437
2022-08-10T08:17:04.000Z,23.375
2022-08-10T08:25:07.190Z,23.312
2022-08-10T08:28:56.685Z,23.375
2022-08-10T08:32:50.689Z,23.375
2022-08-10T08:36:37.728Z,23.312
2022-08-10T08:41:33.174Z,23.312
2022-08-10T08:45:23.416Z,23.25
2022-08-10T08:50:47.817Z,23.25
2022-08-10T08:56:50.471Z,23.25
2022-08-10T09:03:32.322Z,23.187
2022-08-10T09:08:37.172Z,23.187
2022-08-10T09:12:23.893Z,23.187
2022-08-10T09:16:32.735Z,23.187
2022-08-10T09:20:25.258Z,23.187
2022-08-10T09:24:57.748Z,23.187
2022-08-10T09:28:39.519Z,23.187
2022-08-10T09:38:28.787Z,23.187
2022-08-10T09:44:14.199Z,23.187
2022-08-10T09:48:34.658Z,23.187
2022-08-10T09:53:42.202Z,23.187
2022-08-10T09:58:38.866Z,23.25
2022-08-10T10:04:00.442Z,23.25
2022-08-10T10:07:43.824Z,23.25
2022-08-10T10:11:42.442Z,23.25
2022-08-10T10:16:08.519Z,23.25
2022-08-10T10:19:48.045Z,23.25
2022-08-10T10:24:05.584Z,23.25
2022-08-10T10:30:25.126Z,23.312
2022-08-10T10:34:23.376Z,23.312
2022-08-10T10:38:43.516Z,23.312
2022-08-10T10:43:24.966Z,23.312
2022-08-10T10:47:25.298Z,23.312
2022-08-10T10:51:17.828Z,23.312
2022-08-10T10:54:59.329Z,23.312
2022-08-10T11:03:06.571Z,23.375
2022-08-10T11:07:06.490Z,23.375
2022-08-10T11:14:25.621Z,23.437
2022-08-10T11:18:26.942Z,23.437
2022-08-10T11:22:48.286Z,23.437
2022-08-10T11:27:42.323Z,23.437
2022-08-10T11:31:35.100Z,23.5
2022-08-10T11:36:56.190Z,23.5
2022-08-10T11:43:18.572Z,23.5
2022-08-10T11:47:17.550Z,23.5
2022-08-10T11:51:46.287Z,23.562
2022-08-10T11:55:36.191Z,23.5
2022-08-10T12:00:00.187Z,23.562
2022-08-10T12:03:14.122Z,23.562
2022-08-10T12:10:50.266Z,23.562
2022-08-10T12:15:05.001Z,23.562
2022-08-10T12:18:48.360Z,23.562
2022-08-10T12:23:07.439Z,23.562
2022-08-10T12:27:45.206Z,23.562
2022-08-10T12:31:51.461Z,23.562
2022-08-10T12:36:35.868Z,23.625
2022-08-10T12:41:02.722Z,23.625
2022-08-10T12:46:40.551Z,23.625
2022-08-10T12:51:11.366Z,23.625
2022-08-10T12:55:10.502Z,23.687
2022-08-10T12:59:43.763Z,23.75
2022-08-10T13:05:07.532Z,23.75
2022-08-10T13:10:34.312Z,23.75
2022-08-10T13:16:31.651Z,23.75
2022-08-10T13:20:57.090Z,23.75
2022-08-10T13:24:55.533Z,23.75
2022-08-10T13:30:38.268Z,23.812
2022-08-10T13:36:29.630Z,23.812
2022-08-10T13:40:37.773Z,23.812
2022-08-10T13:44:36.816Z,23.812
2022-08-10T13:48:37.786Z,23.812
2022-08-10T13:52:46.919Z,23.875
2022-08-10T13:56:44.223Z,23.875
2022-08-10T14:03:32.302Z,23.937
2022-08-10T14:07:18.351Z,23.937
2022-08-10T14:11:48.711Z,23.937
2022-08-10T14:15:36.050Z,23.937
2022-08-10T14:19:19.874Z,23.937
2022-08-10T14:23:23.038Z,24.0
2022-08-10T14:27:04.729Z,24.0
2022-08-10T14:31:13.729Z,24.0
2022-08-10T14:36:55.550Z,24.062
2022-08-10T14:40:42.052Z,24.062
2022-08-10T14:45:20.236Z,24.062
2022-08-10T14:51:16.307Z,24.062
2022-08-10T14:55:58.474Z,24.062
2022-08-10T15:05:42.107Z,24.062
2022-08-10T15:10:39.071Z,24.062
2022-08-10T15:16:59.678Z,24.125
2022-08-10T15:23:03.147Z,24.125
2022-08-10T15:28:35.858Z,24.187
2022-08-10T15:34:02.032Z,24.187
2022-08-10T15:38:37.031Z,24.187
2022-08-10T15:44:23.474Z,24.187
2022-08-10T15:48:50.296Z,24.187
2022-08-10T15:53:49.868Z,24.187
2022-08-10T15:58:39.780Z,24.187
2022-08-10T16:04:31.942Z,24.187
2022-08-10T16:11:25.451Z,24.187
2022-08-10T16:16:36.567Z,24.187
2022-08-10T16:21:15.999Z,24.187
2022-08-10T16:26:36.405Z,24.187
2022-08-10T16:30:39.617Z,24.187
2022-08-10T16:34:43.130Z,24.187
2022-08-10T16:38:47.813Z,24.187
2022-08-10T16:43:56.210Z,24.187
2022-08-10T16:47:47.375Z,24.187
2022-08-10T16:51:46.581Z,24.187
2022-08-10T16:56:15.478Z,24.125
2022-08-10T17:04:05.344Z,24.125
2022-08-10T17:08:53.733Z,24.125
2022-08-10T17:12:37.427Z,24.187
2022-08-10T17:16:38.123Z,24.187
2022-08-10T17:20:57.343Z,24.187
2022-08-10T17:24:46.364Z,24.187
2022-08-10T17:32:15.774Z,24.187
2022-08-10T17:36:00.888Z,24.187
2022-08-10T17:39:45.054Z,24.125
2022-08-10T17:43:46.387Z,24.125
2022-08-10T17:48:16.864Z,24.125
2022-08-10T17:52:02.474Z,24.125
2022-08-10T17:55:45.627Z,24.125
2022-08-10T17:59:44.633Z,24.125
2022-08-10T18:04:03.297Z,24.125
2022-08-10T18:07:47.429Z,24.062
2022-08-10T18:11:32.484Z,24.062
2022-08-10T18:15:51.494Z,24.062
2022-08-10T18:19:50.582Z,24.062
2022-08-10T18:23:32.409Z,24.062
2022-08-10T18:27:21.346Z,24.062
2022-08-10T18:31:38.126Z,24.0
2022-08-10T18:35:18.059Z,24.0
2022-08-10T18:39:11.913Z,24.0
2022-08-10T18:44:05.783Z,24.0
2022-08-10T18:47:56.069Z,23.937
2022-08-10T18:51:46.901Z,23.937
2022-08-10T18:55:46.267Z,23.937
2022-08-10T19:00:03.594Z,23.937
2022-08-10T19:03:11.704Z,23.937
2022-08-10T19:07:23.952Z,23.937
2022-08-10T19:12:29.898Z,23.937
2022-08-10T19:16:21.887Z,23.937
2022-08-10T19:21:02.297Z,23.937
2022-08-10T19:24:51.106Z,23.875
2022-08-10T19:30:43.278Z,23.875
2022-08-10T19:34:57.102Z,23.875
2022-08-10T19:39:50.891Z,23.875
2022-08-10T19:44:49.457Z,23.875
2022-08-10T19:49:00.298Z,23.875
2022-08-10T19:52:49.045Z,23.875
2022-08-10T19:57:08.338Z,23.875
2022-08-10T20:03:53.845Z,23.875
2022-08-10T20:08:06.586Z,23.875
2022-08-10T20:12:29.974Z,23.812
2022-08-10T20:16:24.531Z,23.812
2022-08-10T20:20:47.171Z,23.812
2022-08-10T20:24:38.625Z,23.812
2022-08-10T20:28:53.246Z,23.812
2022-08-10T20:32:59.226Z,23.812
2022-08-10T20:36:45.185Z,23.812
2022-08-10T20:41:05.844Z,23.812
2022-08-10T20:44:46.514Z,23.812
2022-08-10T20:48:59.821Z,23.812
2022-08-10T20:52:48.033Z,23.812
2022-08-10T20:56:41.923Z,23.812
2022-08-10T21:04:42.262Z,23.812
2022-08-10T21:09:21.383Z,23.812
2022-08-10T21:13:05.175Z,23.812
2022-08-10T21:16:53.307Z,23.812
2022-08-10T21:20:55.093Z,23.812
2022-08-10T21:29:21.544Z,23.812
2022-08-10T22:03:44.087Z,23.75
2022-08-10T22:07:44.614Z,23.75
2022-08-10T22:11:37.745Z,23.75
2022-08-10T22:16:09.951Z,23.75
2022-08-10T22:21:16.066Z,23.75
2022-08-10T22:26:12.915Z,23.75
2022-08-10T22:31:28.836Z,23.75
2022-08-10T22:35:10.774Z,23.75
2022-08-10T22:38:56.751Z,23.75
2022-08-10T22:44:02.340Z,23.75
2022-08-10T22:47:45.418Z,23.75
2022-08-10T22:51:41.376Z,23.75
2022-08-10T22:56:11.958Z,23.75
2022-08-10T22:59:51.701Z,23.75
2022-08-10T23:03:42.884Z,23.687
2022-08-10T23:07:39.885Z,23.75
2022-08-10T23:11:28.197Z,23.687
2022-08-10T23:15:42.995Z,23.687
2022-08-10T23:19:53.714Z,23.687
2022-08-10T23:24:07.066Z,23.687
2022-08-10T23:29:26.044Z,23.687
2022-08-10T23:34:33.153Z,23.687
2022-08-10T23:40:05.060Z,23.687
2022-08-10T23:44:26.816Z,23.687
2022-08-10T23:48:33.270Z,23.687
2022-08-10T23:52:45.286Z,23.687
2022-08-10T23:56:38.097Z,23.625
